sensor_id;sensor_type;location;lat;lon;timestamp;pressure;altitude;pressure_sealevel;temperature;humidity
55604;BME280;41468;48.838;9.330;2023-05-06T00:01:57;98391.44;;;15.04;100.00
55604;BME280;41468;48.838;9.330;2023-05-06T00:04:23;98392.63;;;15.10;100.00
55604;BME280;41468;48.838;9.330;2023-05-06T00:06:50;98380.81;;;15.10;100.00
55604;BME280;41468;48.838;9.330;2023-05-06T00:09:17;98386.72;;;15.08;100.00
55604;BME280;41468;48.838;9.330;2023-05-06T00:11:43;98395.72;;;15.12;100.00
55604;BME280;41468;48.838;9.330;2023-05-06T00:14:11;98391.03;;;15.13;100.00
55604;BME280;41468;48.838;9.330;2023-05-06T00:16:38;98391.44;;;15.11;100.00
55604;BME280;41468;48.838;9.330;2023-05-06T00:19:04;98382.78;;;15.06;100.00
55604;BME280;41468;48.838;9.330;2023-05-06T00:32:07;98385.94;;;14.93;100.00
55604;BME280;41468;48.838;9.330;2023-05-06T00:34:34;98391.03;;;14.98;100.00
55604;BME280;41468;48.838;9.330;2023-05-06T00:37:01;98391.84;;;14.88;100.00
55604;BME280;41468;48.838;9.330;2023-05-06T00:39:28;98384.41;;;14.82;100.00
55604;BME280;41468;48.838;9.330;2023-05-06T00:41:59;98383.63;;;14.81;100.00
55604;BME280;41468;48.838;9.330;2023-05-06T00:44:28;98388.31;;;14.84;100.00
55604;BME280;41468;48.838;9.330;2023-05-06T00:46:55;98387.53;;;14.80;100.00
55604;BME280;41468;48.838;9.330;2023-05-06T00:49:22;98386.75;;;14.69;100.00
55604;BME280;41468;48.838;9.330;2023-05-06T00:51:52;98387.53;;;14.73;100.00
55604;BME280;41468;48.838;9.330;2023-05-06T00:54:19;98386.75;;;14.76;100.00
55604;BME280;41468;48.838;9.330;2023-05-06T00:56:46;98386.38;;;14.70;100.00
55604;BME280;41468;48.838;9.330;2023-05-06T00:59:14;98384.78;;;14.66;100.00
55604;BME280;41468;48.838;9.330;2023-05-06T01:01:40;98383.59;;;14.63;100.00
55604;BME280;41468;48.838;9.330;2023-05-06T01:04:07;98392.66;;;14.56;100.00
55604;BME280;41468;48.838;9.330;2023-05-06T01:06:44;98391.81;;;14.49;100.00
55604;BME280;41468;48.838;9.330;2023-05-06T01:09:22;98389.88;;;14.53;100.00
55604;BME280;41468;48.838;9.330;2023-05-06T01:14:39;98393.78;;;14.48;100.00
55604;BME280;41468;48.838;9.330;2023-05-06T01:17:09;98384.00;;;14.54;100.00
55604;BME280;41468;48.838;9.330;2023-05-06T01:19:42;98382.44;;;14.53;100.00
55604;BME280;41468;48.838;9.330;2023-05-06T01:22:12;98378.50;;;14.54;100.00
55604;BME280;41468;48.838;9.330;2023-05-06T01:24:40;98374.94;;;14.50;100.00
55604;BME280;41468;48.838;9.330;2023-05-06T01:27:08;98377.31;;;14.48;100.00
55604;BME280;41468;48.838;9.330;2023-05-06T01:29:37;98374.56;;;14.38;100.00
55604;BME280;41468;48.838;9.330;2023-05-06T01:48:52;98385.16;;;14.35;100.00
55604;BME280;41468;48.838;9.330;2023-05-06T01:51:26;98383.56;;;14.38;100.00
55604;BME280;41468;48.838;9.330;2023-05-06T01:54:00;98383.94;;;14.26;100.00
55604;BME280;41468;48.838;9.330;2023-05-06T01:56:33;98389.06;;;14.42;100.00
55604;BME280;41468;48.838;9.330;2023-05-06T01:59:05;98389.06;;;14.42;100.00
55604;BME280;41468;48.838;9.330;2023-05-06T02:01:38;98393.78;;;14.48;100.00
55604;BME280;41468;48.838;9.330;2023-05-06T02:04:11;98397.31;;;14.45;100.00
55604;BME280;41468;48.838;9.330;2023-05-06T02:06:44;98382.78;;;14.41;100.00
55604;BME280;41468;48.838;9.330;2023-05-06T02:09:16;98378.06;;;14.42;100.00
55604;BME280;41468;48.838;9.330;2023-05-06T02:11:49;98374.16;;;14.32;100.00
55604;BME280;41468;48.838;9.330;2023-05-06T02:14:22;98389.84;;;14.49;100.00
55604;BME280;41468;48.838;9.330;2023-05-06T02:16:55;98380.44;;;14.40;100.00
55604;BME280;41468;48.838;9.330;2023-05-06T02:19:28;98372.22;;;14.43;100.00
55604;BME280;41468;48.838;9.330;2023-05-06T02:22:00;98375.72;;;14.33;100.00
55604;BME280;41468;48.838;9.330;2023-05-06T02:24:33;98373.00;;;14.40;100.00
55604;BME280;41468;48.838;9.330;2023-05-06T02:27:06;98377.28;;;14.34;100.00
55604;BME280;41468;48.838;9.330;2023-05-06T02:29:39;98381.59;;;14.42;100.00
55604;BME280;41468;48.838;9.330;2023-05-06T02:32:11;98388.28;;;14.45;100.00
55604;BME280;41468;48.838;9.330;2023-05-06T02:34:44;98382.78;;;14.34;100.00
55604;BME280;41468;48.838;9.330;2023-05-06T02:37:17;98378.06;;;14.31;100.00
55604;BME280;41468;48.838;9.330;2023-05-06T02:39:50;98377.28;;;14.27;100.00
55604;BME280;41468;48.838;9.330;2023-05-06T02:42:28;98379.66;;;14.39;100.00
55604;BME280;41468;48.838;9.330;2023-05-06T02:45:00;98368.66;;;14.32;100.00
55604;BME280;41468;48.838;9.330;2023-05-06T02:47:34;98366.31;;;14.45;100.00
55604;BME280;41468;48.838;9.330;2023-05-06T02:50:07;98362.38;;;14.42;100.00
55604;BME280;41468;48.838;9.330;2023-05-06T02:52:40;98360.41;;;14.39;100.00
55604;BME280;41468;48.838;9.330;2023-05-06T02:55:13;98364.72;;;14.26;100.00
55604;BME280;41468;48.838;9.330;2023-05-06T02:57:45;98364.34;;;14.31;100.00
55604;BME280;41468;48.838;9.330;2023-05-06T03:00:18;98366.28;;;14.34;100.00
55604;BME280;41468;48.838;9.330;2023-05-06T03:02:51;98366.31;;;14.41;100.00
55604;BME280;41468;48.838;9.330;2023-05-06T03:05:24;98360.81;;;14.48;100.00
55604;BME280;41468;48.838;9.330;2023-05-06T03:07:57;98362.38;;;14.28;100.00
55604;BME280;41468;48.838;9.330;2023-05-06T03:10:30;98369.44;;;14.25;100.00
55604;BME280;41468;48.838;9.330;2023-05-06T03:13:08;98366.69;;;14.25;100.00
55604;BME280;41468;48.838;9.330;2023-05-06T03:15:34;98371.78;;;14.20;100.00
55604;BME280;41468;48.838;9.330;2023-05-06T03:18:01;98369.41;;;14.11;100.00
55604;BME280;41468;48.838;9.330;2023-05-06T03:20:28;98367.84;;;14.21;100.00
55604;BME280;41468;48.838;9.330;2023-05-06T03:22:55;98370.97;;;14.15;100.00
55604;BME280;41468;48.838;9.330;2023-05-06T03:25:21;98379.25;;;14.30;100.00
55604;BME280;41468;48.838;9.330;2023-05-06T03:27:48;98365.94;;;14.32;100.00
55604;BME280;41468;48.838;9.330;2023-05-06T03:30:15;98361.56;;;14.24;100.00
55604;BME280;41468;48.838;9.330;2023-05-06T03:32:42;98362.38;;;14.42;100.00
55604;BME280;41468;48.838;9.330;2023-05-06T03:35:09;98362.78;;;14.44;100.00
55604;BME280;41468;48.838;9.330;2023-05-06T03:37:37;98361.59;;;14.38;100.00
55604;BME280;41468;48.838;9.330;2023-05-06T03:40:04;98363.56;;;14.30;100.00
55604;BME280;41468;48.838;9.330;2023-05-06T03:42:31;98365.91;;;14.28;100.00
55604;BME280;41468;48.838;9.330;2023-05-06T03:44:58;98371.00;;;14.30;100.00
55604;BME280;41468;48.838;9.330;2023-05-06T03:47:24;98358.06;;;14.20;100.00
55604;BME280;41468;48.838;9.330;2023-05-06T03:49:51;98349.41;;;14.07;100.00
55604;BME280;41468;48.838;9.330;2023-05-06T03:52:18;98362.31;;;13.99;100.00
55604;BME280;41468;48.838;9.330;2023-05-06T03:54:45;98358.78;;;13.95;100.00
55604;BME280;41468;48.838;9.330;2023-05-06T03:57:12;98348.16;;;13.83;100.00
55604;BME280;41468;48.838;9.330;2023-05-06T03:59:38;98350.13;;;13.79;100.00
55604;BME280;41468;48.838;9.330;2023-05-06T04:02:05;98355.22;;;13.77;100.00
55604;BME280;41468;48.838;9.330;2023-05-06T04:04:32;98349.72;;;13.77;100.00
55604;BME280;41468;48.838;9.330;2023-05-06T04:07:00;98346.59;;;13.78;100.00
55604;BME280;41468;48.838;9.330;2023-05-06T04:09:27;98346.59;;;13.78;100.00
55604;BME280;41468;48.838;9.330;2023-05-06T04:11:54;98350.50;;;13.74;100.00
55604;BME280;41468;48.838;9.330;2023-05-06T04:14:21;98354.84;;;13.82;100.00
55604;BME280;41468;48.838;9.330;2023-05-06T04:16:48;98355.25;;;13.84;100.00
55604;BME280;41468;48.838;9.330;2023-05-06T04:19:14;98354.47;;;13.94;100.00
55604;BME280;41468;48.838;9.330;2023-05-06T04:21:43;98356.81;;;13.96;100.00
55604;BME280;41468;48.838;9.330;2023-05-06T04:24:21;98363.84;;;13.79;100.00
55604;BME280;41468;48.838;9.330;2023-05-06T04:26:48;98361.44;;;13.70;100.00
55604;BME280;41468;48.838;9.330;2023-05-06T04:29:15;98368.91;;;13.62;100.00
55604;BME280;41468;48.838;9.330;2023-05-06T04:31:41;98369.69;;;13.63;100.00
55604;BME280;41468;48.838;9.330;2023-05-06T04:34:08;98372.00;;;13.64;100.00
55604;BME280;41468;48.838;9.330;2023-05-06T04:36:36;98375.53;;;13.61;100.00
55604;BME280;41468;48.838;9.330;2023-05-06T04:39:09;98381.03;;;13.61;100.00
55604;BME280;41468;48.838;9.330;2023-05-06T04:41:36;98378.31;;;13.68;100.00
55604;BME280;41468;48.838;9.330;2023-05-06T04:44:03;98388.47;;;13.57;100.00
55604;BME280;41468;48.838;9.330;2023-05-06T04:46:30;98379.78;;;13.48;100.00
55604;BME280;41468;48.838;9.330;2023-05-06T04:48:57;98384.13;;;13.49;100.00
55604;BME280;41468;48.838;9.330;2023-05-06T04:51:23;98387.31;;;13.65;100.00
55604;BME280;41468;48.838;9.330;2023-05-06T04:53:50;98389.25;;;13.58;100.00
55604;BME280;41468;48.838;9.330;2023-05-06T04:56:18;98386.50;;;13.61;100.00
55604;BME280;41468;48.838;9.330;2023-05-06T04:58:44;98381.75;;;13.47;100.00
55604;BME280;41468;48.838;9.330;2023-05-06T05:01:11;98392.00;;;13.61;100.00
55604;BME280;41468;48.838;9.330;2023-05-06T05:03:38;98389.66;;;13.60;100.00
55604;BME280;41468;48.838;9.330;2023-05-06T05:06:05;98396.34;;;13.69;100.00
55604;BME280;41468;48.838;9.330;2023-05-06T05:08:32;98397.91;;;13.63;100.00
55604;BME280;41468;48.838;9.330;2023-05-06T05:10:58;98397.94;;;13.74;100.00
55604;BME280;41468;48.838;9.330;2023-05-06T05:13:25;98404.25;;;13.78;100.00
55604;BME280;41468;48.838;9.330;2023-05-06T05:15:55;98402.69;;;13.91;100.00
55604;BME280;41468;48.838;9.330;2023-05-06T05:18:21;98399.16;;;13.87;100.00
55604;BME280;41468;48.838;9.330;2023-05-06T05:20:48;98408.22;;;14.09;100.00
55604;BME280;41468;48.838;9.330;2023-05-06T05:23:15;98404.31;;;14.18;100.00
55604;BME280;41468;48.838;9.330;2023-05-06T05:25:42;98406.72;;;14.30;100.00
55604;BME280;41468;48.838;9.330;2023-05-06T05:28:08;98411.06;;;14.49;100.00
55604;BME280;41468;48.838;9.330;2023-05-06T05:30:35;98412.25;;;14.58;100.00
55604;BME280;41468;48.838;9.330;2023-05-06T05:33:02;98420.50;;;14.80;100.00
55604;BME280;41468;48.838;9.330;2023-05-06T05:35:33;98428.38;;;14.92;100.00
55604;BME280;41468;48.838;9.330;2023-05-06T05:38:00;98430.31;;;14.88;100.00
55604;BME280;41468;48.838;9.330;2023-05-06T05:40:27;98426.78;;;14.88;100.00
55604;BME280;41468;48.838;9.330;2023-05-06T05:42:53;98435.03;;;14.88;100.00
55604;BME280;41468;48.838;9.330;2023-05-06T05:45:20;98429.91;;;15.04;100.00
55604;BME280;41468;48.838;9.330;2023-05-06T05:47:47;98434.66;;;15.11;100.00
55604;BME280;41468;48.838;9.330;2023-05-06T05:50:14;98423.63;;;15.29;100.00
55604;BME280;41468;48.838;9.330;2023-05-06T05:52:40;98436.94;;;15.44;100.00
55604;BME280;41468;48.838;9.330;2023-05-06T05:55:08;98431.47;;;15.12;100.00
55604;BME280;41468;48.838;9.330;2023-05-06T05:57:35;98433.88;;;14.89;100.00
55604;BME280;41468;48.838;9.330;2023-05-06T06:00:03;98435.41;;;15.15;100.00
55604;BME280;41468;48.838;9.330;2023-05-06T06:02:31;98435.75;;;15.42;100.00
55604;BME280;41468;48.838;9.330;2023-05-06T06:05:00;98431.75;;;15.75;100.00
55604;BME280;41468;48.838;9.330;2023-05-06T06:07:26;98432.88;;;15.88;100.00
55604;BME280;41468;48.838;9.330;2023-05-06T06:09:53;98432.81;;;16.03;100.00
55604;BME280;41468;48.838;9.330;2023-05-06T06:12:20;98436.72;;;16.12;100.00
55604;BME280;41468;48.838;9.330;2023-05-06T06:14:46;98433.09;;;16.26;99.92
55604;BME280;41468;48.838;9.330;2023-05-06T06:17:14;98431.09;;;16.30;96.13
55604;BME280;41468;48.838;9.330;2023-05-06T06:19:48;98431.00;;;16.45;95.88
55604;BME280;41468;48.838;9.330;2023-05-06T06:22:16;98435.41;;;16.35;95.73
55604;BME280;41468;48.838;9.330;2023-05-06T06:24:43;98439.78;;;16.25;96.23
55604;BME280;41468;48.838;9.330;2023-05-06T06:27:10;98440.47;;;16.40;94.99
55604;BME280;41468;48.838;9.330;2023-05-06T06:29:36;98433.44;;;16.32;96.58
55604;BME280;41468;48.838;9.330;2023-05-06T06:32:08;98436.56;;;16.38;96.66
55604;BME280;41468;48.838;9.330;2023-05-06T06:34:34;98428.69;;;16.40;97.29
55604;BME280;41468;48.838;9.330;2023-05-06T06:37:02;98429.56;;;16.26;98.38
55604;BME280;41468;48.838;9.330;2023-05-06T06:39:28;98434.22;;;16.32;95.26
55604;BME280;41468;48.838;9.330;2023-05-06T06:41:55;98439.84;;;16.15;97.10
55604;BME280;41468;48.838;9.330;2023-05-06T06:44:23;98442.91;;;16.27;97.07
55604;BME280;41468;48.838;9.330;2023-05-06T06:46:50;98447.22;;;16.32;97.40
55604;BME280;41468;48.838;9.330;2023-05-06T06:49:17;98453.94;;;16.31;96.53
55604;BME280;41468;48.838;9.330;2023-05-06T06:51:43;98457.16;;;16.11;99.63
55604;BME280;41468;48.838;9.330;2023-05-06T06:54:21;98458.38;;;16.07;100.00
55604;BME280;41468;48.838;9.330;2023-05-06T06:56:48;98453.28;;;15.98;100.00
55604;BME280;41468;48.838;9.330;2023-05-06T06:59:15;98450.59;;;15.91;100.00
55604;BME280;41468;48.838;9.330;2023-05-06T07:01:41;98454.53;;;15.79;100.00
55604;BME280;41468;48.838;9.330;2023-05-06T07:04:20;98454.59;;;16.49;92.85
55604;BME280;41468;48.838;9.330;2023-05-06T07:06:47;98451.81;;;16.53;93.32
55604;BME280;41468;48.838;9.330;2023-05-06T07:09:20;98463.28;;;16.48;95.03
55604;BME280;41468;48.838;9.330;2023-05-06T07:11:46;98452.09;;;16.69;95.25
55604;BME280;41468;48.838;9.330;2023-05-06T07:14:13;98456.66;;;16.94;93.96
55604;BME280;41468;48.838;9.330;2023-05-06T07:16:40;98449.00;;;16.60;98.36
55604;BME280;41468;48.838;9.330;2023-05-06T07:19:09;98461.22;;;16.59;94.32
55604;BME280;41468;48.838;9.330;2023-05-06T07:21:36;98456.03;;;16.72;95.86
55604;BME280;41468;48.838;9.330;2023-05-06T07:24:03;98462.69;;;16.78;96.49
55604;BME280;41468;48.838;9.330;2023-05-06T07:26:29;98457.88;;;16.89;96.92
55604;BME280;41468;48.838;9.330;2023-05-06T07:28:56;98459.34;;;17.05;95.91
55604;BME280;41468;48.838;9.330;2023-05-06T07:31:23;98465.78;;;17.36;90.39
55604;BME280;41468;48.838;9.330;2023-05-06T07:33:50;98463.81;;;16.88;88.92
55604;BME280;41468;48.838;9.330;2023-05-06T07:36:27;98466.19;;;16.86;89.73
55604;BME280;41468;48.838;9.330;2023-05-06T07:38:54;98473.19;;;16.97;91.15
55604;BME280;41468;48.838;9.330;2023-05-06T07:41:21;98475.28;;;16.83;93.29
55604;BME280;41468;48.838;9.330;2023-05-06T07:43:48;98478.06;;;16.75;94.95
55604;BME280;41468;48.838;9.330;2023-05-06T07:46:15;98482.78;;;16.78;91.51
55604;BME280;41468;48.838;9.330;2023-05-06T07:48:42;98475.78;;;16.63;92.53
55604;BME280;41468;48.838;9.330;2023-05-06T07:51:08;98476.88;;;17.29;92.08
55604;BME280;41468;48.838;9.330;2023-05-06T07:53:35;98470.63;;;18.00;91.93
55604;BME280;41468;48.838;9.330;2023-05-06T07:56:03;98478.03;;;18.38;86.27
55604;BME280;41468;48.838;9.330;2023-05-06T07:58:30;98480.28;;;18.16;84.22
55604;BME280;41468;48.838;9.330;2023-05-06T08:00:57;98471.19;;;18.15;84.22
55604;BME280;41468;48.838;9.330;2023-05-06T08:03:24;98487.59;;;17.99;85.03
55604;BME280;41468;48.838;9.330;2023-05-06T08:05:52;98475.63;;;18.09;85.14
55604;BME280;41468;48.838;9.330;2023-05-06T08:08:19;98473.78;;;17.99;83.67
55604;BME280;41468;48.838;9.330;2023-05-06T08:10:46;98472.53;;;18.34;84.52
55604;BME280;41468;48.838;9.330;2023-05-06T08:13:13;98480.81;;;18.65;79.04
55604;BME280;41468;48.838;9.330;2023-05-06T08:15:40;98483.28;;;17.94;80.41
55604;BME280;41468;48.838;9.330;2023-05-06T08:18:07;98477.66;;;18.36;77.88
55604;BME280;41468;48.838;9.330;2023-05-06T08:20:47;98483.31;;;18.83;79.04
55604;BME280;41468;48.838;9.330;2023-05-06T08:23:14;98485.13;;;18.93;80.72
55604;BME280;41468;48.838;9.330;2023-05-06T08:25:40;98481.47;;;19.23;73.21
55604;BME280;41468;48.838;9.330;2023-05-06T08:28:07;98485.19;;;19.36;73.37
55604;BME280;41468;48.838;9.330;2023-05-06T08:30:34;98475.72;;;19.37;74.57
55604;BME280;41468;48.838;9.330;2023-05-06T08:33:01;98477.84;;;19.26;70.42
55604;BME280;41468;48.838;9.330;2023-05-06T08:35:27;98481.09;;;19.45;70.31
55604;BME280;41468;48.838;9.330;2023-05-06T08:37:54;98484.09;;;19.77;67.06
55604;BME280;41468;48.838;9.330;2023-05-06T08:40:21;98483.03;;;19.01;70.43
55604;BME280;41468;48.838;9.330;2023-05-06T08:42:49;98481.72;;;19.32;70.60
55604;BME280;41468;48.838;9.330;2023-05-06T08:45:16;98475.28;;;19.15;71.38
55604;BME280;41468;48.838;9.330;2023-05-06T08:47:43;98483.75;;;19.05;71.46
55604;BME280;41468;48.838;9.330;2023-05-06T08:50:10;98474.88;;;19.17;71.67
55604;BME280;41468;48.838;9.330;2023-05-06T08:52:38;98472.19;;;19.57;70.43
55604;BME280;41468;48.838;9.330;2023-05-06T08:55:05;98481.97;;;20.05;69.23
55604;BME280;41468;48.838;9.330;2023-05-06T08:57:33;98479.63;;;19.83;64.94
55604;BME280;41468;48.838;9.330;2023-05-06T09:00:00;98475.75;;;20.17;65.19
55604;BME280;41468;48.838;9.330;2023-05-06T09:02:27;98493.63;;;19.96;67.44
55604;BME280;41468;48.838;9.330;2023-05-06T09:04:54;98483.31;;;19.97;64.36
55604;BME280;41468;48.838;9.330;2023-05-06T09:07:23;98484.69;;;19.65;67.20
55604;BME280;41468;48.838;9.330;2023-05-06T09:09:50;98482.72;;;19.42;66.98
55604;BME280;41468;48.838;9.330;2023-05-06T09:12:17;98486.53;;;19.52;66.67
55604;BME280;41468;48.838;9.330;2023-05-06T09:14:43;98479.16;;;19.65;65.86
55604;BME280;41468;48.838;9.330;2023-05-06T09:17:18;98477.88;;;20.29;61.55
55604;BME280;41468;48.838;9.330;2023-05-06T09:19:51;98483.38;;;20.49;62.30
55604;BME280;41468;48.838;9.330;2023-05-06T09:22:20;98482.66;;;20.09;63.96
55604;BME280;41468;48.838;9.330;2023-05-06T09:24:48;98479.47;;;20.11;62.59
55604;BME280;41468;48.838;9.330;2023-05-06T09:27:30;98477.84;;;19.73;63.77
55604;BME280;41468;48.838;9.330;2023-05-06T09:30:05;98480.19;;;19.51;65.65
55604;BME280;41468;48.838;9.330;2023-05-06T09:32:33;98479.75;;;19.53;63.37
55604;BME280;41468;48.838;9.330;2023-05-06T09:35:04;98469.03;;;19.78;65.25
55604;BME280;41468;48.838;9.330;2023-05-06T09:37:31;98472.53;;;20.02;64.62
55604;BME280;41468;48.838;9.330;2023-05-06T09:39:59;98472.44;;;20.06;63.31
55604;BME280;41468;48.838;9.330;2023-05-06T09:42:29;98470.56;;;19.59;60.16
55604;BME280;41468;48.838;9.330;2023-05-06T09:44:58;98472.28;;;19.73;61.54
55604;BME280;41468;48.838;9.330;2023-05-06T09:47:32;98469.13;;;19.51;58.61
55604;BME280;41468;48.838;9.330;2023-05-06T09:50:01;98469.72;;;19.15;61.51
55604;BME280;41468;48.838;9.330;2023-05-06T09:52:29;98462.66;;;19.58;60.64
55604;BME280;41468;48.838;9.330;2023-05-06T09:54:57;98463.22;;;19.73;61.34
55604;BME280;41468;48.838;9.330;2023-05-06T09:57:24;98459.38;;;19.86;60.98
55604;BME280;41468;48.838;9.330;2023-05-06T09:59:52;98467.16;;;19.28;61.18
55604;BME280;41468;48.838;9.330;2023-05-06T10:02:21;98459.47;;;19.16;61.61
55604;BME280;41468;48.838;9.330;2023-05-06T10:04:49;98466.31;;;19.31;66.38
55604;BME280;41468;48.838;9.330;2023-05-06T10:07:19;98465.56;;;19.51;64.86
55604;BME280;41468;48.838;9.330;2023-05-06T10:09:53;98449.84;;;19.88;64.82
55604;BME280;41468;48.838;9.330;2023-05-06T10:12:20;98457.94;;;20.18;64.13
55604;BME280;41468;48.838;9.330;2023-05-06T10:14:47;98449.31;;;20.33;62.10
55604;BME280;41468;48.838;9.330;2023-05-06T10:17:14;98455.19;;;20.71;58.46
55604;BME280;41468;48.838;9.330;2023-05-06T10:19:49;98447.81;;;20.97;59.41
55604;BME280;41468;48.838;9.330;2023-05-06T10:22:25;98437.56;;;21.43;57.60
55604;BME280;41468;48.838;9.330;2023-05-06T10:25:04;98433.94;;;21.13;56.23
55604;BME280;41468;48.838;9.330;2023-05-06T10:27:34;98437.88;;;20.47;55.72
55604;BME280;41468;48.838;9.330;2023-05-06T10:30:03;98432.16;;;20.74;55.75
55604;BME280;41468;48.838;9.330;2023-05-06T10:32:31;98433.81;;;21.50;55.45
55604;BME280;41468;48.838;9.330;2023-05-06T10:35:04;98423.75;;;22.11;54.12
55604;BME280;41468;48.838;9.330;2023-05-06T10:37:35;98417.88;;;22.09;53.93
55604;BME280;41468;48.838;9.330;2023-05-06T10:40:04;98417.09;;;22.21;53.23
55604;BME280;41468;48.838;9.330;2023-05-06T10:42:33;98416.56;;;22.39;51.96
55604;BME280;41468;48.838;9.330;2023-05-06T10:45:04;98420.00;;;22.43;51.70
55604;BME280;41468;48.838;9.330;2023-05-06T10:50:24;98411.41;;;23.01;51.88
55604;BME280;41468;48.838;9.330;2023-05-06T10:52:53;98406.56;;;22.41;50.85
55604;BME280;41468;48.838;9.330;2023-05-06T10:57:54;98393.34;;;22.93;50.71
55604;BME280;41468;48.838;9.330;2023-05-06T11:00:22;98396.53;;;22.31;53.01
55604;BME280;41468;48.838;9.330;2023-05-06T11:02:54;98389.91;;;21.99;50.68
55604;BME280;41468;48.838;9.330;2023-05-06T11:05:22;98388.06;;;22.09;53.46
55604;BME280;41468;48.838;9.330;2023-05-06T11:07:49;98389.47;;;22.14;53.17
55604;BME280;41468;48.838;9.330;2023-05-06T11:10:32;98380.63;;;22.57;51.81
55604;BME280;41468;48.838;9.330;2023-05-06T11:13:18;98389.44;;;23.16;49.93
55604;BME280;41468;48.838;9.330;2023-05-06T11:15:46;98382.22;;;23.06;46.71
55604;BME280;41468;48.838;9.330;2023-05-06T11:26:16;98383.41;;;22.32;51.21
55604;BME280;41468;48.838;9.330;2023-05-06T11:28:44;98375.50;;;22.43;50.22
55604;BME280;41468;48.838;9.330;2023-05-06T11:31:12;98375.78;;;22.83;50.29
55604;BME280;41468;48.838;9.330;2023-05-06T11:33:46;98377.91;;;23.27;48.86
55604;BME280;41468;48.838;9.330;2023-05-06T11:36:14;98378.91;;;22.85;48.17
55604;BME280;41468;48.838;9.330;2023-05-06T11:38:50;98381.47;;;22.67;49.66
55604;BME280;41468;48.838;9.330;2023-05-06T11:41:18;98375.34;;;22.85;48.00
55604;BME280;41468;48.838;9.330;2023-05-06T11:43:46;98376.28;;;23.38;46.55
55604;BME280;41468;48.838;9.330;2023-05-06T11:46:17;98376.94;;;23.43;46.98
55604;BME280;41468;48.838;9.330;2023-05-06T11:48:44;98384.31;;;23.14;46.14
55604;BME280;41468;48.838;9.330;2023-05-06T11:51:11;98373.72;;;23.44;46.79
55604;BME280;41468;48.838;9.330;2023-05-06T11:53:38;98373.19;;;23.58;45.56
55604;BME280;41468;48.838;9.330;2023-05-06T11:56:05;98370.88;;;23.79;45.85
55604;BME280;41468;48.838;9.330;2023-05-06T11:58:32;98364.84;;;24.12;45.71
55604;BME280;41468;48.838;9.330;2023-05-06T12:01:02;98367.38;;;24.28;45.67
55604;BME280;41468;48.838;9.330;2023-05-06T12:03:30;98365.94;;;24.45;44.63
55604;BME280;41468;48.838;9.330;2023-05-06T12:05:58;98369.19;;;23.81;44.47
55604;BME280;41468;48.838;9.330;2023-05-06T12:08:31;98373.94;;;23.15;44.72
55604;BME280;41468;48.838;9.330;2023-05-06T12:11:00;98374.47;;;23.45;46.23
55604;BME280;41468;48.838;9.330;2023-05-06T12:13:28;98365.81;;;23.87;45.24
55604;BME280;41468;48.838;9.330;2023-05-06T12:15:57;98365.25;;;24.01;45.89
55604;BME280;41468;48.838;9.330;2023-05-06T12:18:24;98366.38;;;24.44;44.19
55604;BME280;41468;48.838;9.330;2023-05-06T12:20:53;98366.09;;;24.20;44.14
55604;BME280;41468;48.838;9.330;2023-05-06T12:23:20;98365.69;;;24.31;44.36
55604;BME280;41468;48.838;9.330;2023-05-06T12:26:03;98369.72;;;24.30;43.30
55604;BME280;41468;48.838;9.330;2023-05-06T12:28:35;98366.81;;;24.02;44.58
55604;BME280;41468;48.838;9.330;2023-05-06T12:31:19;98357.25;;;23.59;44.35
55604;BME280;41468;48.838;9.330;2023-05-06T12:33:47;98359.84;;;22.97;44.91
55604;BME280;41468;48.838;9.330;2023-05-06T12:36:17;98360.53;;;22.75;44.77
55604;BME280;41468;48.838;9.330;2023-05-06T12:38:55;98351.69;;;22.29;48.60
55604;BME280;41468;48.838;9.330;2023-05-06T12:41:24;98361.72;;;22.39;47.53
55604;BME280;41468;48.838;9.330;2023-05-06T12:44:34;98357.34;;;22.64;47.09
55604;BME280;41468;48.838;9.330;2023-05-06T12:47:04;98349.72;;;23.03;47.09
55604;BME280;41468;48.838;9.330;2023-05-06T12:49:55;98352.97;;;23.67;44.63
55604;BME280;41468;48.838;9.330;2023-05-06T12:52:27;98358.91;;;23.34;42.88
55604;BME280;41468;48.838;9.330;2023-05-06T12:54:56;98351.03;;;23.77;43.38
55604;BME280;41468;48.838;9.330;2023-05-06T12:57:23;98349.88;;;23.43;42.89
55604;BME280;41468;48.838;9.330;2023-05-06T12:59:49;98354.59;;;23.33;44.34
55604;BME280;41468;48.838;9.330;2023-05-06T13:02:17;98351.22;;;23.38;44.87
55604;BME280;41468;48.838;9.330;2023-05-06T13:04:44;98343.63;;;23.61;42.85
55604;BME280;41468;48.838;9.330;2023-05-06T13:07:12;98351.72;;;23.68;43.55
55604;BME280;41468;48.838;9.330;2023-05-06T13:09:39;98347.00;;;23.56;43.50
55604;BME280;41468;48.838;9.330;2023-05-06T13:12:05;98342.44;;;23.93;43.54
55604;BME280;41468;48.838;9.330;2023-05-06T13:14:32;98335.84;;;23.56;42.71
55604;BME280;41468;48.838;9.330;2023-05-06T13:16:59;98333.72;;;23.16;44.51
55604;BME280;41468;48.838;9.330;2023-05-06T13:19:32;98335.09;;;23.33;43.39
55604;BME280;41468;48.838;9.330;2023-05-06T13:21:59;98333.66;;;23.51;41.79
55604;BME280;41468;48.838;9.330;2023-05-06T13:24:27;98330.66;;;23.01;42.42
55604;BME280;41468;48.838;9.330;2023-05-06T13:26:53;98318.56;;;22.82;43.92
55604;BME280;41468;48.838;9.330;2023-05-06T13:29:22;98318.16;;;22.71;44.33
55604;BME280;41468;48.838;9.330;2023-05-06T13:31:50;98312.94;;;23.08;43.10
55604;BME280;41468;48.838;9.330;2023-05-06T13:34:17;98307.97;;;22.90;45.83
55604;BME280;41468;48.838;9.330;2023-05-06T13:36:44;98306.44;;;22.76;43.23
55604;BME280;41468;48.838;9.330;2023-05-06T13:39:12;98295.38;;;23.20;42.88
55604;BME280;41468;48.838;9.330;2023-05-06T13:41:38;98297.88;;;23.49;41.79
55604;BME280;41468;48.838;9.330;2023-05-06T13:44:05;98296.34;;;23.48;43.70
55604;BME280;41468;48.838;9.330;2023-05-06T13:46:32;98289.16;;;23.38;44.09
55604;BME280;41468;48.838;9.330;2023-05-06T13:48:59;98286.19;;;23.64;43.47